createdAt,value
2017-06-04T00:00:26.424Z,26.20
2017-06-04T00:02:55.603Z,23.33
2017-06-04T00:05:24.001Z,23.20
2017-06-04T00:07:52.613Z,23.73
2017-06-04T00:10:21.018Z,23.57
2017-06-04T00:12:49.412Z,25.27
2017-06-04T00:15:17.845Z,21.47
2017-06-04T00:17:46.333Z,22.27
2017-06-04T00:20:14.745Z,19.53
2017-06-04T00:22:43.180Z,18.27
2017-06-04T00:25:11.636Z,17.63
2017-06-04T00:27:40.064Z,19.63
2017-06-04T00:30:08.473Z,19.67
2017-06-04T00:32:36.882Z,19.00
2017-06-04T00:35:05.286Z,18.90
2017-06-04T00:37:33.757Z,19.63
2017-06-04T00:40:02.348Z,16.83
2017-06-04T00:42:30.776Z,15.63
2017-06-04T00:44:59.305Z,16.03
2017-06-04T00:47:28.445Z,13.63
2017-06-04T00:49:56.833Z,12.80
2017-06-04T00:52:25.259Z,12.37
2017-06-04T00:54:53.688Z,11.67
2017-06-04T00:57:22.122Z,11.37
2017-06-04T00:59:50.540Z,12.60
2017-06-04T01:02:18.976Z,12.90
2017-06-04T01:04:47.415Z,12.43
2017-06-04T01:07:15.849Z,11.93
2017-06-04T01:09:44.566Z,11.53
2017-06-04T01:12:12.956Z,18.53
2017-06-04T01:14:41.534Z,15.33
2017-06-04T01:17:10.008Z,15.13
2017-06-04T01:19:38.385Z,16.00
2017-06-04T01:22:06.817Z,16.40
2017-06-04T01:24:35.233Z,15.17
2017-06-04T01:27:03.659Z,19.63
2017-06-04T01:29:32.579Z,16.57
2017-06-04T01:32:01.713Z,18.23
2017-06-04T01:34:30.172Z,17.87
2017-06-04T01:36:58.648Z,16.10
2017-06-04T01:39:27.111Z,16.93
2017-06-04T01:41:55.553Z,16.57
2017-06-04T01:44:23.983Z,17.10
2017-06-04T01:46:52.412Z,19.70
2017-06-04T01:49:20.812Z,17.43
2017-06-04T01:51:49.285Z,19.37
2017-06-04T01:54:18.532Z,20.03
2017-06-04T01:56:46.943Z,19.50
2017-06-04T01:59:15.503Z,20.63
2017-06-04T02:01:43.895Z,20.90
2017-06-04T02:04:12.342Z,23.83
2017-06-04T02:06:41.522Z,24.17
2017-06-04T02:09:09.926Z,27.47
2017-06-04T02:11:38.327Z,28.07
2017-06-04T02:14:06.785Z,27.90
2017-06-04T02:16:35.208Z,28.63
2017-06-04T02:19:03.609Z,34.70
2017-06-04T02:21:32.112Z,29.00
2017-06-04T02:24:00.511Z,27.90
2017-06-04T02:26:28.910Z,27.67
2017-06-04T02:28:57.458Z,26.77
2017-06-04T02:31:25.859Z,24.07
2017-06-04T02:33:54.278Z,25.73
2017-06-04T02:36:23.009Z,28.13
2017-06-04T02:38:52.158Z,28.33
2017-06-04T02:41:20.714Z,29.70
2017-06-04T02:43:49.167Z,30.03
2017-06-04T02:46:17.551Z,30.60
2017-06-04T02:48:45.960Z,30.93
2017-06-04T02:51:14.360Z,27.40
2017-06-04T02:53:42.738Z,26.43
2017-06-04T02:56:11.136Z,27.37
2017-06-04T02:58:40.430Z,29.33
2017-06-04T03:01:08.812Z,29.80
2017-06-04T03:03:37.282Z,31.80
2017-06-04T03:06:05.757Z,18.87
2017-06-04T03:08:34.156Z,17.63
2017-06-04T03:11:02.585Z,16.80
2017-06-04T03:13:31.041Z,14.60
2017-06-04T03:16:00.460Z,14.10
2017-06-04T03:18:28.868Z,15.00
2017-06-04T03:20:57.325Z,13.80
2017-06-04T03:23:25.729Z,15.33
2017-06-04T03:25:54.109Z,17.17
2017-06-04T03:28:22.547Z,17.03
2017-06-04T03:30:50.953Z,15.57
2017-06-04T03:33:19.383Z,18.10
2017-06-04T03:35:48.716Z,16.63
2017-06-04T03:38:17.109Z,21.47
2017-06-04T03:40:45.510Z,19.40
2017-06-04T03:43:13.944Z,19.97
2017-06-04T03:45:42.336Z,20.90
2017-06-04T03:48:10.742Z,22.40
2017-06-04T03:50:39.247Z,18.47
2017-06-04T03:53:08.427Z,17.30
2017-06-04T03:55:36.836Z,15.80
2017-06-04T03:58:26.041Z,18.87
2017-06-04T04:00:54.457Z,16.97
2017-06-04T04:03:22.868Z,19.47
2017-06-04T04:05:51.316Z,19.53
2017-06-04T04:08:19.713Z,17.07
2017-06-04T04:10:48.881Z,16.63
2017-06-04T04:13:17.376Z,19.53
2017-06-04T04:15:45.865Z,18.77
2017-06-04T04:18:14.282Z,18.10
2017-06-04T04:20:42.697Z,17.33
2017-06-04T04:23:11.102Z,21.20
2017-06-04T04:25:39.500Z,15.30
2017-06-04T04:28:08.700Z,15.63
2017-06-04T04:30:37.863Z,18.40
2017-06-04T04:33:06.259Z,17.50
2017-06-04T04:35:34.676Z,17.63
2017-06-04T04:38:03.069Z,18.50
2017-06-04T04:40:31.488Z,17.53
2017-06-04T04:42:59.952Z,16.60
2017-06-04T04:45:28.353Z,16.80
2017-06-04T04:47:56.753Z,18.40
2017-06-04T04:50:25.942Z,18.23
2017-06-04T04:52:54.456Z,19.43
2017-06-04T04:55:23.605Z,17.57
2017-06-04T04:57:52.021Z,18.90
2017-06-04T05:00:20.418Z,19.07
2017-06-04T05:02:48.844Z,19.27
2017-06-04T05:05:17.267Z,20.50
2017-06-04T05:07:45.684Z,20.50
2017-06-04T05:10:14.089Z,21.43
2017-06-04T05:12:42.487Z,20.43
2017-06-04T05:15:11.023Z,21.77
2017-06-04T05:17:39.496Z,21.23
2017-06-04T05:20:07.903Z,21.70
2017-06-04T05:22:36.305Z,20.23
2017-06-04T05:25:05.512Z,19.43
2017-06-04T05:27:53.480Z,21.57
2017-06-04T05:30:22.257Z,21.07
2017-06-04T05:32:50.855Z,21.27
2017-06-04T05:35:19.259Z,22.00
2017-06-04T05:37:47.709Z,25.37
2017-06-04T05:40:16.124Z,27.27
2017-06-04T05:42:44.518Z,23.73
2017-06-04T05:45:12.930Z,24.20
2017-06-04T05:47:41.450Z,25.77
2017-06-04T05:50:10.789Z,25.57
2017-06-04T05:52:39.969Z,24.40
2017-06-04T05:55:08.373Z,24.70
2017-06-04T05:57:36.785Z,26.47
2017-06-04T06:00:05.236Z,25.57
2017-06-04T06:02:33.767Z,29.17
2017-06-04T06:05:02.141Z,24.20
2017-06-04T06:07:30.575Z,25.47
2017-06-04T06:09:59.167Z,26.53
2017-06-04T06:12:27.566Z,25.30
2017-06-04T06:14:55.984Z,25.50
2017-06-04T06:17:25.264Z,26.07
2017-06-04T06:19:53.665Z,22.10
2017-06-04T06:22:22.987Z,24.57
2017-06-04T06:24:51.396Z,22.30
2017-06-04T06:27:19.910Z,29.53
2017-06-04T06:29:48.340Z,24.20
2017-06-04T06:32:16.749Z,20.90
2017-06-04T06:34:45.150Z,16.50
2017-06-04T06:37:14.399Z,15.87
2017-06-04T06:39:42.835Z,19.17
2017-06-04T06:42:11.232Z,16.40
2017-06-04T06:44:39.681Z,16.87
2017-06-04T06:47:08.087Z,17.70
2017-06-04T06:49:36.571Z,14.77
2017-06-04T06:52:05.787Z,13.93
2017-06-04T06:54:34.200Z,20.40
2017-06-04T06:57:02.631Z,17.07
2017-06-04T06:59:31.815Z,15.70
2017-06-04T07:02:01.108Z,14.50
2017-06-04T07:04:30.410Z,21.93
2017-06-04T07:06:59.665Z,14.50
2017-06-04T07:09:28.057Z,15.30
2017-06-04T07:11:56.477Z,12.87
2017-06-04T07:14:25.811Z,14.77
2017-06-04T07:16:54.202Z,13.27
2017-06-04T07:19:22.615Z,15.30
2017-06-04T07:21:51.259Z,12.47
2017-06-04T07:24:20.485Z,15.70
2017-06-04T07:26:48.906Z,13.37
2017-06-04T07:29:18.330Z,13.00
2017-06-04T07:31:46.803Z,13.63
2017-06-04T07:34:15.207Z,13.93
2017-06-04T07:36:44.607Z,14.50
2017-06-04T07:39:13.017Z,13.47
2017-06-04T07:41:42.237Z,19.83
2017-06-04T07:44:11.448Z,13.63
2017-06-04T07:46:39.876Z,16.50
2017-06-04T07:49:08.329Z,11.13
2017-06-04T07:51:36.807Z,18.03
2017-06-04T07:54:05.395Z,13.87
2017-06-04T07:56:33.848Z,11.77
2017-06-04T07:59:03.185Z,11.47
2017-06-04T08:01:32.468Z,13.20
2017-06-04T08:04:00.977Z,11.10
2017-06-04T08:09:29.694Z,7.70
2017-06-04T08:11:58.141Z,10.20
2017-06-04T08:14:26.549Z,8.10
2017-06-04T08:16:55.005Z,9.13
2017-06-04T08:19:23.488Z,12.03
2017-06-04T08:21:51.901Z,9.27
2017-06-04T08:24:20.293Z,10.53
2017-06-04T08:26:48.776Z,10.47
2017-06-04T08:29:17.377Z,8.77
2017-06-04T08:31:46.580Z,9.40
2017-06-04T08:34:15.007Z,18.43
2017-06-04T08:36:43.428Z,16.17
2017-06-04T08:39:12.702Z,19.33
2017-06-04T08:41:41.372Z,18.87
2017-06-04T08:44:10.007Z,24.00
2017-06-04T08:46:38.431Z,23.40
2017-06-04T08:49:06.901Z,22.87
2017-06-04T08:51:36.109Z,25.93
2017-06-04T08:54:04.678Z,28.83
2017-06-04T08:56:33.146Z,31.27
2017-06-04T08:59:01.541Z,31.10
2017-06-04T09:01:29.957Z,32.03
2017-06-04T09:03:58.452Z,31.83
2017-06-04T09:06:26.879Z,28.93
2017-06-04T09:08:55.364Z,29.90
2017-06-04T09:11:24.576Z,29.63
2017-06-04T09:13:53.036Z,28.80
2017-06-04T09:16:21.497Z,27.27
2017-06-04T09:18:50.004Z,26.80
2017-06-04T09:21:19.199Z,28.73
2017-06-04T09:23:47.670Z,28.17
2017-06-04T09:26:16.201Z,24.63
2017-06-04T09:28:44.603Z,26.60
2017-06-04T09:31:13.020Z,24.13
2017-06-04T09:33:42.680Z,23.67
2017-06-04T09:36:12.402Z,23.43
2017-06-04T09:38:40.808Z,22.47
2017-06-04T09:41:09.294Z,18.77
2017-06-04T09:43:38.514Z,16.67
2017-06-04T09:46:06.980Z,15.53
2017-06-04T09:48:35.492Z,16.50
2017-06-04T09:51:03.970Z,21.03
2017-06-04T09:53:32.414Z,28.30
2017-06-04T09:56:02.308Z,27.93
2017-06-04T09:58:30.776Z,23.43
2017-06-04T10:00:59.521Z,21.80
2017-06-04T10:03:28.058Z,23.63
2017-06-04T10:05:56.491Z,25.30
2017-06-04T10:08:24.956Z,24.67
2017-06-04T10:10:54.220Z,22.30
2017-06-04T10:13:22.681Z,24.03
2017-06-04T10:15:51.230Z,21.83
2017-06-04T10:18:20.558Z,22.17
2017-06-04T10:20:48.992Z,20.00
2017-06-04T10:23:17.446Z,20.40
2017-06-04T10:25:45.940Z,17.83
2017-06-04T10:28:15.256Z,18.30
2017-06-04T10:30:43.757Z,16.37
2017-06-04T10:33:12.216Z,17.70
2017-06-04T10:35:41.824Z,17.00
2017-06-04T10:38:10.296Z,20.00
2017-06-04T10:40:38.836Z,20.70
2017-06-04T10:43:07.287Z,18.87
2017-06-04T10:45:35.766Z,20.37
2017-06-04T10:48:04.268Z,19.53
2017-06-04T10:50:32.743Z,15.50
2017-06-04T10:53:01.227Z,15.40
2017-06-04T10:55:29.931Z,18.47
2017-06-04T10:57:58.382Z,13.50
2017-06-04T11:00:26.835Z,10.80
2017-06-04T11:02:55.350Z,14.93
2017-06-04T11:05:23.801Z,9.10
2017-06-04T11:07:52.270Z,9.20
2017-06-04T11:10:21.723Z,10.67
2017-06-04T11:12:50.966Z,12.80
2017-06-04T11:15:19.414Z,8.53
2017-06-04T11:17:48.095Z,6.20
2017-06-04T11:20:16.549Z,8.90
2017-06-04T11:22:45.004Z,7.97
2017-06-04T11:25:13.428Z,8.27
2017-06-04T11:27:41.850Z,10.40
2017-06-04T11:30:10.243Z,8.83
2017-06-04T11:32:38.745Z,7.17
2017-06-04T11:35:08.213Z,10.80
2017-06-04T11:37:36.633Z,10.50
2017-06-04T11:40:05.132Z,9.47
2017-06-04T11:42:33.544Z,11.97
2017-06-04T11:45:02.085Z,8.70
2017-06-04T11:47:30.600Z,10.13
2017-06-04T11:49:59.053Z,8.20
2017-06-04T11:52:27.461Z,11.00
2017-06-04T11:54:55.938Z,10.43
2017-06-04T11:57:24.625Z,8.37
2017-06-04T11:59:53.057Z,7.83
2017-06-04T12:02:21.495Z,8.17
2017-06-04T12:04:49.959Z,7.60
2017-06-04T12:07:18.436Z,7.50
2017-06-04T12:09:46.834Z,10.30
2017-06-04T12:12:15.275Z,7.70
2017-06-04T12:14:43.952Z,8.83
2017-06-04T12:17:12.417Z,10.10
2017-06-04T12:19:40.846Z,14.17
2017-06-04T12:22:09.378Z,8.90
2017-06-04T12:24:37.807Z,12.23
2017-06-04T12:27:06.308Z,11.07
2017-06-04T12:29:34.807Z,11.43
2017-06-04T12:32:04.181Z,11.03
2017-06-04T12:34:32.992Z,11.90
2017-06-04T12:37:01.792Z,12.27
2017-06-04T12:39:30.322Z,13.53
2017-06-04T12:41:58.912Z,10.10
2017-06-04T12:44:27.418Z,11.97
2017-06-04T12:46:56.006Z,9.77
2017-06-04T12:49:25.266Z,12.90
2017-06-04T12:51:53.801Z,10.43
2017-06-04T12:54:23.105Z,18.40
2017-06-04T12:56:52.377Z,11.57
2017-06-04T12:59:20.910Z,10.47
2017-06-04T13:01:49.358Z,20.70
2017-06-04T13:04:17.849Z,9.47
2017-06-04T13:06:47.559Z,9.50
2017-06-04T13:09:16.041Z,13.00
2017-06-04T13:11:46.989Z,14.37
2017-06-04T13:14:15.810Z,14.23
2017-06-04T13:16:44.361Z,14.53
2017-06-04T13:19:12.967Z,12.43
2017-06-04T13:21:41.588Z,15.60
2017-06-04T13:24:10.084Z,13.80
2017-06-04T13:26:38.525Z,14.27
2017-06-04T13:29:07.103Z,19.03
2017-06-04T13:31:35.678Z,16.50
2017-06-04T13:34:04.261Z,13.50
2017-06-04T13:36:32.753Z,12.83
2017-06-04T13:39:02.044Z,14.07
2017-06-04T13:41:30.579Z,10.03
2017-06-04T13:43:59.142Z,11.83
2017-06-04T13:46:27.637Z,11.50
2017-06-04T13:48:56.868Z,7.97
2017-06-04T13:51:25.500Z,5.87
2017-06-04T13:53:54.111Z,7.37
2017-06-04T13:56:22.546Z,3.87
2017-06-04T13:58:51.021Z,4.73
2017-06-04T14:01:20.196Z,6.53
2017-06-04T14:03:48.700Z,4.67
2017-06-04T14:06:17.200Z,6.23
2017-06-04T14:08:45.630Z,5.70
2017-06-04T14:11:14.149Z,6.67
2017-06-04T14:13:42.607Z,8.07
2017-06-04T14:16:11.791Z,7.10
2017-06-04T14:18:40.196Z,10.07
2017-06-04T14:21:08.798Z,12.60
2017-06-04T14:23:37.232Z,8.33
2017-06-04T14:26:06.421Z,8.30
2017-06-04T14:28:34.944Z,6.03
2017-06-04T14:31:04.108Z,5.77
2017-06-04T14:33:33.647Z,5.50
2017-06-04T14:36:03.069Z,34.07
2017-06-04T14:38:31.878Z,3.93
2017-06-04T14:41:00.262Z,6.03
2017-06-04T14:43:28.723Z,8.60
2017-06-04T14:45:57.181Z,5.10
2017-06-04T14:48:26.363Z,4.50
2017-06-04T14:50:54.841Z,4.37
2017-06-04T14:53:24.085Z,2.40
2017-06-04T14:55:53.111Z,3.43
2017-06-04T14:58:21.737Z,3.77
2017-06-04T15:00:50.917Z,3.80
2017-06-04T15:03:20.182Z,2.97
2017-06-04T15:05:48.698Z,5.67
2017-06-04T15:08:17.884Z,5.20
2017-06-04T15:10:46.315Z,4.17
2017-06-04T15:13:14.791Z,4.70
2017-06-04T15:15:43.263Z,7.17
2017-06-04T15:18:11.650Z,5.97
2017-06-04T15:20:40.137Z,3.60
2017-06-04T15:23:08.533Z,4.23
2017-06-04T15:25:36.959Z,22.23
2017-06-04T15:28:05.713Z,10.90
2017-06-04T15:30:34.142Z,4.60
2017-06-04T15:33:02.622Z,4.73
2017-06-04T15:35:31.834Z,9.43
2017-06-04T15:38:00.260Z,3.07
2017-06-04T15:40:28.747Z,5.77
2017-06-04T15:42:57.168Z,4.43
2017-06-04T15:45:26.401Z,8.70
2017-06-04T15:47:54.833Z,6.30
2017-06-04T15:50:24.101Z,6.50
2017-06-04T15:52:52.522Z,7.23
2017-06-04T15:55:20.964Z,3.47
2017-06-04T15:57:50.210Z,3.47
2017-06-04T16:00:18.784Z,4.40
2017-06-04T16:02:47.235Z,3.07
2017-06-04T16:05:16.471Z,7.00
2017-06-04T16:07:44.909Z,5.40
2017-06-04T16:10:13.311Z,9.50
2017-06-04T16:12:42.670Z,7.00
2017-06-04T16:15:11.107Z,7.50
2017-06-04T16:17:39.540Z,5.93
2017-06-04T16:20:08.806Z,3.30
2017-06-04T16:22:38.206Z,5.53
2017-06-04T16:25:06.773Z,6.30
2017-06-04T16:27:35.305Z,6.47
2017-06-04T16:30:03.718Z,5.00
2017-06-04T16:32:32.888Z,3.50
2017-06-04T16:35:01.347Z,7.90
2017-06-04T16:37:29.798Z,7.53
2017-06-04T16:39:59.253Z,5.20
2017-06-04T16:42:27.688Z,4.00
2017-06-04T16:44:56.136Z,7.07
2017-06-04T16:47:25.046Z,9.33
2017-06-04T16:49:54.378Z,6.13
2017-06-04T16:52:22.855Z,3.83
2017-06-04T16:54:51.370Z,4.90
2017-06-04T16:57:19.872Z,4.80
2017-06-04T16:59:48.386Z,5.97
2017-06-04T17:02:16.829Z,5.60
2017-06-04T17:04:46.089Z,3.90
2017-06-04T17:07:14.496Z,5.13
2017-06-04T17:09:42.930Z,6.17
2017-06-04T17:12:11.522Z,3.37
2017-06-04T17:14:40.880Z,2.80
2017-06-04T17:17:10.075Z,4.33
2017-06-04T17:19:38.485Z,3.80
2017-06-04T17:22:06.987Z,2.50
2017-06-04T17:24:35.415Z,3.87
2017-06-04T17:27:04.187Z,2.80
2017-06-04T17:29:32.651Z,6.70
2017-06-04T17:32:01.197Z,4.27
2017-06-04T17:34:30.414Z,4.03
2017-06-04T17:37:01.648Z,4.57
2017-06-04T17:39:30.357Z,4.00
2017-06-04T17:41:59.383Z,3.83
2017-06-04T17:44:27.895Z,3.07
2017-06-04T17:46:56.360Z,7.80
2017-06-04T17:49:25.496Z,2.87
2017-06-04T17:51:53.911Z,2.93
2017-06-04T17:54:23.269Z,6.97
2017-06-04T17:56:51.742Z,3.13
2017-06-04T17:59:20.232Z,5.53
2017-06-04T18:01:48.936Z,4.27
2017-06-04T18:04:17.475Z,5.70
2017-06-04T18:06:45.918Z,4.37
2017-06-04T18:09:15.304Z,3.70
2017-06-04T18:11:43.772Z,5.90
2017-06-04T18:14:12.216Z,7.57
2017-06-04T18:16:40.710Z,5.20
2017-06-04T18:19:09.916Z,3.27
2017-06-04T18:21:39.759Z,6.90
2017-06-04T18:24:08.358Z,5.93
2017-06-04T18:26:36.815Z,4.37
2017-06-04T18:29:05.286Z,3.03
2017-06-04T18:31:33.804Z,7.30
2017-06-04T18:34:02.253Z,4.63
2017-06-04T18:36:30.689Z,6.70
2017-06-04T18:38:59.238Z,4.60
2017-06-04T18:41:27.675Z,3.10
2017-06-04T18:43:56.151Z,6.80
2017-06-04T18:46:24.638Z,4.00
2017-06-04T18:48:53.108Z,5.27
2017-06-04T18:51:21.521Z,3.80
2017-06-04T18:53:50.064Z,5.53
2017-06-04T18:56:18.648Z,6.07
2017-06-04T18:58:47.888Z,3.80
2017-06-04T19:01:16.434Z,7.17
2017-06-04T19:03:45.903Z,7.37
2017-06-04T19:06:14.362Z,6.20
2017-06-04T19:08:42.894Z,5.00
2017-06-04T19:11:12.223Z,5.53
2017-06-04T19:13:40.800Z,5.63
2017-06-04T19:16:10.019Z,4.63
2017-06-04T19:18:38.460Z,6.33
2017-06-04T19:21:08.428Z,5.77
2017-06-04T19:23:36.843Z,4.07
2017-06-04T19:26:05.562Z,4.47
2017-06-04T19:28:35.958Z,4.00
2017-06-04T19:31:04.413Z,3.43
2017-06-04T19:33:32.841Z,8.00
2017-06-04T19:36:01.335Z,5.00
2017-06-04T19:38:29.828Z,4.70
2017-06-04T19:40:59.081Z,4.73
2017-06-04T19:43:27.617Z,4.30
2017-06-04T19:45:57.000Z,4.67
2017-06-04T19:48:25.567Z,5.07
2017-06-04T19:50:54.432Z,5.13
2017-06-04T19:53:23.624Z,4.47
2017-06-04T19:55:52.839Z,2.57
2017-06-04T19:58:22.139Z,2.30
2017-06-04T20:00:50.559Z,3.90
2017-06-04T20:03:18.993Z,7.07
2017-06-04T20:05:48.752Z,7.27
2017-06-04T20:08:17.237Z,4.17
2017-06-04T20:10:45.882Z,3.30
2017-06-04T20:13:15.163Z,2.40
2017-06-04T20:15:43.590Z,5.50
2017-06-04T20:18:13.349Z,2.70
2017-06-04T20:20:42.098Z,5.40
2017-06-04T20:23:10.612Z,5.77
2017-06-04T20:25:39.862Z,1.80
2017-06-04T20:28:08.623Z,3.67
2017-06-04T20:30:37.976Z,11.80
2017-06-04T20:33:06.748Z,4.00
2017-06-04T20:35:35.205Z,14.20
2017-06-04T20:38:04.011Z,4.93
2017-06-04T20:40:33.825Z,4.00
2017-06-04T20:43:03.842Z,3.20
2017-06-04T20:45:34.427Z,3.53
2017-06-04T20:48:03.391Z,5.20
2017-06-04T20:50:32.820Z,5.70
2017-06-04T20:53:01.397Z,4.03
2017-06-04T20:55:30.145Z,3.47
2017-06-04T20:57:58.837Z,3.50
2017-06-04T21:00:27.281Z,3.60
2017-06-04T21:02:56.588Z,4.07
2017-06-04T21:05:25.843Z,4.30
2017-06-04T21:07:54.287Z,5.70
2017-06-04T21:10:23.450Z,8.93
2017-06-04T21:12:51.936Z,2.30
2017-06-04T21:15:21.202Z,5.30
2017-06-04T21:17:49.667Z,4.77
2017-06-04T21:20:18.213Z,4.40
2017-06-04T21:22:49.403Z,2.50
2017-06-04T21:25:18.817Z,8.07
2017-06-04T21:27:48.040Z,3.10
2017-06-04T21:30:16.609Z,3.43
2017-06-04T21:32:48.949Z,3.97
2017-06-04T21:35:17.402Z,3.23
2017-06-04T21:37:45.893Z,5.63
2017-06-04T21:40:14.976Z,8.60
2017-06-04T21:42:43.441Z,3.27
2017-06-04T21:45:11.989Z,4.60
2017-06-04T21:47:40.618Z,7.13
2017-06-04T21:50:09.174Z,7.00
2017-06-04T21:52:38.393Z,3.00
2017-06-04T21:55:07.838Z,3.27
2017-06-04T21:57:36.403Z,2.63
2017-06-04T22:00:04.951Z,2.47
2017-06-04T22:02:34.208Z,7.10
2017-06-04T22:05:03.172Z,4.80
2017-06-04T22:07:31.621Z,6.40
2017-06-04T22:13:00.200Z,4.40
2017-06-04T22:15:28.674Z,3.97
2017-06-04T22:17:57.227Z,6.43
2017-06-04T22:20:26.491Z,2.67
2017-06-04T22:22:54.918Z,2.57
2017-06-04T22:25:23.347Z,1.63
2017-06-04T22:27:51.805Z,7.30
2017-06-04T22:30:20.239Z,4.20
2017-06-04T22:32:49.427Z,6.03
2017-06-04T22:35:18.009Z,2.80
2017-06-04T22:37:46.411Z,7.80
2017-06-04T22:40:15.804Z,2.30
2017-06-04T22:42:44.529Z,4.20
2017-06-04T22:45:12.971Z,1.80
2017-06-04T22:47:42.170Z,5.27
2017-06-04T22:50:11.597Z,3.87
2017-06-04T22:52:40.040Z,4.37
2017-06-04T22:55:09.268Z,2.10
2017-06-04T22:57:37.766Z,4.40
2017-06-04T23:00:06.198Z,5.37
2017-06-04T23:02:35.403Z,6.70
2017-06-04T23:05:03.960Z,4.23
2017-06-04T23:07:32.440Z,5.47
2017-06-04T23:10:01.738Z,3.17
2017-06-04T23:12:30.197Z,6.00
2017-06-04T23:14:59.583Z,5.47
2017-06-04T23:17:28.803Z,2.60
2017-06-04T23:19:57.182Z,3.87
2017-06-04T23:22:25.629Z,7.57
2017-06-04T23:24:55.801Z,4.03
2017-06-04T23:27:24.278Z,4.47
2017-06-04T23:29:52.685Z,6.13
2017-06-04T23:32:21.127Z,4.73
2017-06-04T23:34:49.552Z,5.03
2017-06-04T23:37:18.816Z,2.73
2017-06-04T23:39:47.373Z,2.70
2017-06-04T23:42:15.790Z,6.10
2017-06-04T23:44:44.220Z,3.27
2017-06-04T23:47:13.018Z,4.83
2017-06-04T23:49:41.482Z,4.83
2017-06-04T23:52:10.661Z,6.70
2017-06-04T23:54:39.895Z,3.23
2017-06-04T23:57:08.297Z,6.30
